Time;durP1;ratioP1;P1;durP2;ratioP2;P2;SDS_P1;SDS_P2;PMS_P1;PMS_P2;Temp;Humidity;BMP_temperature;BMP_pressure;BME280_temperature;BME280_humidity;BME280_pressure;Samples;Min_cycle;Max_cycle;Signal;HPM_P1;HPM_P2
2021/05/19 00:00:34;;;;;;;2.27;2.07;;;;;;;8.74;100.00;98026.51;3754730;77;44534;-24
2021/05/19 00:05:40;;;;;;;2.90;1.93;;;;;;;8.68;100.00;98028.47;3735405;78;43693;-21
2021/05/19 00:10:46;;;;;;;2.50;2.17;;;;;;;8.63;100.00;98023.09;3740538;78;73315;-22
2021/05/19 00:15:51;;;;;;;2.93;2.30;;;;;;;8.63;100.00;98028.47;3760176;77;44115;-22
2021/05/19 00:20:58;;;;;;;3.93;2.70;;;;;;;8.63;100.00;98035.66;3739915;77;42892;-23
2021/05/19 00:26:05;;;;;;;4.27;2.53;;;;;;;8.61;100.00;98035.83;3745936;77;44075;-23
2021/05/19 00:31:12;;;;;;;2.42;2.15;;;;;;;8.63;100.00;98032.98;3751009;77;73272;-23
2021/05/19 00:36:19;;;;;;;2.60;2.23;;;;;;;8.64;100.00;98024.75;3740886;77;44048;-23
2021/05/19 00:41:25;;;;;;;2.83;2.40;;;;;;;8.61;100.00;98035.83;3738820;78;43291;-23
2021/05/19 00:46:32;;;;;;;3.47;2.37;;;;;;;8.65;100.00;98028.30;3745006;78;43451;-24
2021/05/19 00:51:38;;;;;;;3.67;2.60;;;;;;;8.66;100.00;98029.13;3754786;78;43406;-23
2021/05/19 00:56:46;;;;;;;3.43;3.00;;;;;;;8.60;100.00;98022.06;3758080;78;43718;-23
2021/05/19 01:01:54;;;;;;;5.13;3.03;;;;;;;8.53;100.00;98029.05;3637424;80;44045;-23
2021/05/19 01:07:05;;;;;;;4.30;3.27;;;;;;;8.60;100.00;98030.60;3744359;78;65028;-24
2021/05/19 01:12:11;;;;;;;3.90;3.30;;;;;;;8.54;100.00;98040.13;3737842;78;43199;-24
2021/05/19 01:17:19;;;;;;;4.45;3.40;;;;;;;8.52;100.00;98038.61;3638428;80;44139;-23
2021/05/19 01:22:26;;;;;;;5.43;3.40;;;;;;;8.49;100.00;98046.49;3733797;78;44222;-23
2021/05/19 01:27:32;;;;;;;5.80;4.15;;;;;;;8.49;100.00;98050.52;3639841;81;69068;-24
2021/05/19 01:32:38;;;;;;;5.70;4.60;;;;;;;8.47;100.00;98046.62;3737853;78;69086;-24
2021/05/19 01:37:46;;;;;;;6.20;4.93;;;;;;;8.54;100.00;98057.58;3740802;78;43677;-23
2021/05/19 01:42:53;;;;;;;6.87;5.03;;;;;;;8.53;100.00;98060.44;3753391;77;43455;-23
2021/05/19 01:48:18;;;;;;;6.30;5.00;;;;;;;8.53;100.00;98068.49;3706331;78;26834;-23
2021/05/19 01:53:25;;;;;;;7.67;5.60;;;;;;;8.52;100.00;98069.48;3707616;78;69005;-24
2021/05/19 01:58:32;;;;;;;8.13;5.72;;;;;;;8.51;100.00;98072.69;3763072;77;44464;-23
2021/05/19 02:03:40;;;;;;;7.53;5.40;;;;;;;8.49;100.00;98073.34;3662810;80;43697;-23
2021/05/19 02:08:50;;;;;;;8.70;5.97;;;;;;;8.48;100.00;98081.05;3749514;77;26676;-23
2021/05/19 02:13:58;;;;;;;8.87;6.07;;;;;;;8.46;100.00;98077.64;3749131;77;43988;-23
2021/05/19 02:19:06;;;;;;;8.80;6.30;;;;;;;8.42;100.00;98083.83;3745066;78;43336;-23
2021/05/19 02:24:15;;;;;;;9.77;6.30;;;;;;;8.45;100.00;98087.55;3700339;79;43276;-23
2021/05/19 02:29:21;;;;;;;10.57;7.00;;;;;;;8.46;100.00;98085.69;3768135;77;43682;-23
2021/05/19 02:34:28;;;;;;;9.00;6.72;;;;;;;8.43;100.00;98086.86;3752484;77;43686;-23
2021/05/19 02:39:35;;;;;;;11.47;7.60;;;;;;;8.37;100.00;98079.92;3771722;77;44127;-23
2021/05/19 02:44:41;;;;;;;14.38;8.23;;;;;;;8.36;100.00;98083.60;3761284;77;75361;-23
2021/05/19 02:49:47;;;;;;;15.17;8.47;;;;;;;8.29;100.00;98080.18;3709769;78;43165;-24
2021/05/19 02:54:53;;;;;;;14.40;9.00;;;;;;;8.23;100.00;98086.18;3715412;78;43735;-23
2021/05/19 02:59:58;;;;;;;16.00;10.07;;;;;;;8.17;100.00;98093.52;3738709;77;78409;-23
2021/05/19 03:05:07;;;;;;;16.93;11.17;;;;;;;8.15;100.00;98088.29;3716522;77;43763;-23
2021/05/19 03:10:14;;;;;;;22.83;10.93;;;;;;;8.15;100.00;98095.52;3695856;79;44146;-22
2021/05/19 03:15:22;;;;;;;18.57;11.47;;;;;;;8.18;100.00;98099.20;3723498;78;42948;-22
2021/05/19 03:20:28;;;;;;;20.57;12.13;;;;;;;8.16;100.00;98101.23;3722934;77;43051;-21
2021/05/19 03:25:36;;;;;;;20.10;11.40;;;;;;;8.13;100.00;98101.53;3714353;78;43722;-22
2021/05/19 03:30:42;;;;;;;20.63;11.03;;;;;;;8.15;100.00;98104.39;3734766;77;44224;-22
2021/05/19 03:35:49;;;;;;;18.75;10.43;;;;;;;8.15;100.00;98104.91;3717451;78;43677;-22
2021/05/19 03:40:55;;;;;;;19.13;11.27;;;;;;;8.16;100.00;98110.62;3707708;78;43090;-22
2021/05/19 03:46:02;;;;;;;22.40;11.67;;;;;;;8.20;100.00;98116.00;3760217;78;43763;-22
2021/05/19 03:51:08;;;;;;;21.03;11.03;;;;;;;8.23;100.00;98122.92;3736458;78;77382;-22
2021/05/19 03:56:15;;;;;;;21.47;11.40;;;;;;;8.26;100.00;98113.20;3597406;81;43415;-21
2021/05/19 04:01:21;;;;;;;19.83;11.60;;;;;;;8.26;100.00;98123.45;3745173;78;44464;-21
2021/05/19 04:06:26;;;;;;;23.87;12.20;;;;;;;8.32;100.00;98121.48;3752472;78;44723;-21
2021/05/19 04:11:32;;;;;;;21.95;12.30;;;;;;;8.37;100.00;98124.21;3741722;78;43299;-22
2021/05/19 04:16:39;;;;;;;22.00;12.33;;;;;;;8.40;100.00;98126.59;3733307;78;43679;-22
2021/05/19 04:21:45;;;;;;;19.57;11.00;;;;;;;8.39;100.00;98123.56;3634165;80;43719;-23
2021/05/19 04:26:50;;;;;;;22.17;11.45;;;;;;;8.40;100.00;98130.11;3587197;81;43567;-21
2021/05/19 04:31:57;;;;;;;19.63;11.07;;;;;;;8.46;100.00;98138.05;3739099;78;43230;-21
2021/05/19 04:37:02;;;;;;;18.77;11.87;;;;;;;8.48;100.00;98142.28;3739658;78;77958;-20
2021/05/19 04:42:09;;;;;;;17.13;10.57;;;;;;;8.45;100.00;98145.75;3749823;78;42520;-22
2021/05/19 04:47:15;;;;;;;16.97;10.45;;;;;;;8.46;100.00;98152.80;3771122;78;44711;-21
2021/05/19 04:52:22;;;;;;;17.95;10.53;;;;;;;8.54;100.00;98156.92;3772664;77;43358;-22
2021/05/19 04:57:29;;;;;;;17.37;10.63;;;;;;;8.57;100.00;98167.36;3715223;78;44109;-21
2021/05/19 05:02:36;;;;;;;19.25;10.68;;;;;;;8.53;100.00;98163.80;3719176;78;44478;-21
2021/05/19 05:07:42;;;;;;;18.77;11.17;;;;;;;8.54;100.00;98166.33;3721361;79;44481;-21
2021/05/19 05:12:49;;;;;;;17.93;11.67;;;;;;;8.58;100.00;98171.73;3711897;78;44476;-21
2021/05/19 05:17:55;;;;;;;20.05;12.23;;;;;;;8.62;100.00;98184.35;3708980;79;43443;-21
2021/05/19 05:23:02;;;;;;;19.67;12.15;;;;;;;8.61;100.00;98179.50;3704640;80;43233;-20
2021/05/19 05:28:08;;;;;;;21.33;13.13;;;;;;;8.68;100.00;98189.60;3765341;78;43749;-20
2021/05/19 05:33:14;;;;;;;23.10;13.67;;;;;;;8.75;100.00;98194.72;3700164;79;44074;-22
2021/05/19 05:38:20;;;;;;;22.83;13.43;;;;;;;8.80;100.00;98207.16;3697152;79;44068;-20
2021/05/19 05:43:26;;;;;;;22.40;13.27;;;;;;;8.88;100.00;98205.88;3706616;78;43728;-21
2021/05/19 05:48:32;;;;;;;20.37;12.90;;;;;;;8.89;100.00;98216.97;3697976;79;43693;-21
2021/05/19 05:53:38;;;;;;;20.00;12.50;;;;;;;8.91;100.00;98221.69;3697414;78;73663;-21
2021/05/19 05:58:44;;;;;;;19.90;13.00;;;;;;;8.98;100.00;98221.09;3759689;78;43979;-20
2021/05/19 06:03:50;;;;;;;20.40;12.10;;;;;;;9.03;100.00;98230.84;3696787;78;77477;-20
2021/05/19 06:08:57;;;;;;;21.13;13.33;;;;;;;9.04;100.00;98229.37;3741159;77;44144;-21
2021/05/19 06:14:04;;;;;;;20.80;13.60;;;;;;;9.16;100.00;98225.91;3758164;77;43333;-20
2021/05/19 06:19:10;;;;;;;23.30;15.13;;;;;;;9.29;100.00;98228.69;3755169;77;43078;-20
2021/05/19 06:24:16;;;;;;;20.05;12.82;;;;;;;9.44;100.00;98231.15;3697648;80;44724;-20
2021/05/19 06:29:23;;;;;;;18.73;13.22;;;;;;;9.36;100.00;98233.77;3742286;78;44061;-20
2021/05/19 06:34:29;;;;;;;18.75;13.13;;;;;;;9.42;100.00;98247.94;3703011;78;44114;-29
2021/05/19 06:39:35;;;;;;;20.57;13.22;;;;;;;9.50;100.00;98250.67;3701088;78;43450;-21
2021/05/19 06:44:41;;;;;;;20.72;14.13;;;;;;;9.46;100.00;98249.31;3750223;77;43721;-20
2021/05/19 06:49:47;;;;;;;20.27;13.80;;;;;;;9.60;100.00;98250.56;3746374;77;44149;-21
2021/05/19 06:54:54;;;;;;;20.27;13.88;;;;;;;9.61;100.00;98258.12;3756409;78;44187;-20
2021/05/19 06:59:59;;;;;;;21.82;15.28;;;;;;;9.64;100.00;98256.47;3739683;78;43377;-20
2021/05/19 07:05:09;;;;;;;19.75;13.40;;;;;;;9.76;100.00;98259.22;3755035;77;43329;-20
2021/05/19 07:10:15;;;;;;;18.95;13.80;;;;;;;9.81;100.00;98265.47;3752613;78;44079;-20
2021/05/19 07:15:22;;;;;;;20.37;13.53;;;;;;;9.79;100.00;98262.09;3746278;77;44701;-20
2021/05/19 07:20:30;;;;;;;21.77;13.27;;;;;;;9.87;100.00;98267.53;3755783;77;44044;-20
2021/05/19 07:25:36;;;;;;;17.02;12.60;;;;;;;9.98;100.00;98274.46;3733696;78;44423;-21
2021/05/19 07:30:43;;;;;;;18.12;12.95;;;;;;;10.11;100.00;98270.82;3743995;78;44117;-21
2021/05/19 07:35:51;;;;;;;18.55;13.32;;;;;;;10.44;100.00;98267.44;3739891;77;44097;-20
2021/05/19 07:40:57;;;;;;;18.15;12.90;;;;;;;10.51;100.00;98279.74;3745386;78;43341;-20
2021/05/19 07:46:03;;;;;;;18.73;13.93;;;;;;;10.57;100.00;98281.77;3764357;77;44721;-21
2021/05/19 07:51:08;;;;;;;17.02;13.13;;;;;;;10.51;100.00;98278.39;3699998;78;44724;-21
2021/05/19 07:56:18;;;;;;;17.60;12.63;;;;;;;10.47;100.00;98274.67;3764054;77;44161;-20
2021/05/19 08:01:30;;;;;;;17.90;12.95;;;;;;;10.55;100.00;98275.69;3768061;77;44744;-20
2021/05/19 08:06:31;;;;;;;18.67;13.53;;;;;;;10.60;100.00;98265.28;3765930;77;43024;-20
2021/05/19 08:11:38;;;;;;;19.17;13.88;;;;;;;10.73;100.00;98264.30;3699446;79;43329;-20
2021/05/19 08:16:42;;;;;;;18.85;13.48;;;;;;;10.66;100.00;98263.25;3736541;78;42988;-21
2021/05/19 08:21:47;;;;;;;18.70;13.43;;;;;;;11.00;100.00;98264.14;3755682;77;43302;-21
2021/05/19 08:26:54;;;;;;;14.45;11.25;;;;;;;11.26;100.00;98259.91;3704795;79;44101;-21
2021/05/19 08:32:00;;;;;;;14.47;11.95;;;;;;;11.59;100.00;98257.17;3697332;79;43682;-20
2021/05/19 08:37:06;;;;;;;13.18;10.20;;;;;;;11.76;100.00;98261.19;3706042;78;44719;-20
2021/05/19 08:42:12;;;;;;;13.75;10.18;;;;;;;11.58;100.00;98258.21;3748939;78;44373;-22
2021/05/19 08:47:24;;;;;;;12.15;9.53;;;;;;;11.70;100.00;98264.90;3701570;80;43703;-21
2021/05/19 08:52:31;;;;;;;13.10;9.58;;;;;;;11.81;100.00;98257.48;3700333;79;42720;-20
2021/05/19 08:57:40;;;;;;;11.70;8.30;;;;;;;11.89;100.00;98260.14;3707773;79;44385;-21
2021/05/19 09:03:04;;;;;;;10.23;8.10;;;;;;;12.06;100.00;98257.39;3708690;78;44601;-21
2021/05/19 09:08:12;;;;;;;10.30;8.25;;;;;;;11.81;100.00;98252.08;3705516;79;42882;-20
2021/05/19 09:13:32;;;;;;;9.75;7.75;;;;;;;12.01;100.00;98247.13;3705096;80;44206;-21
2021/05/19 09:18:49;;;;;;;8.00;6.72;;;;;;;12.53;100.00;98244.85;3746958;77;43313;-21
2021/05/19 09:23:55;;;;;;;8.70;6.70;;;;;;;12.66;100.00;98246.95;3743756;78;44023;-20
2021/05/19 09:29:20;;;;;;;7.78;6.50;;;;;;;12.59;100.00;98240.07;3753974;77;43009;-21
2021/05/19 09:34:28;;;;;;;6.58;5.60;;;;;;;12.95;100.00;98229.52;3735842;77;44466;-21
2021/05/19 09:39:47;;;;;;;7.72;5.10;;;;;;;12.85;100.00;98230.28;3732463;78;43362;-21
2021/05/19 09:44:56;;;;;;;6.15;4.92;;;;;;;12.94;100.00;98229.19;3742702;78;43717;-21
2021/05/19 09:50:02;;;;;;;6.97;5.72;;;;;;;12.94;100.00;98226.48;3745658;77;43434;-21
2021/05/19 09:55:12;;;;;;;6.20;5.10;;;;;;;13.02;100.00;98230.98;3754729;78;45055;-21
2021/05/19 10:00:23;;;;;;;7.75;5.50;;;;;;;13.13;100.00;98222.94;3745336;77;44219;-23
2021/05/19 10:05:33;;;;;;;5.35;4.40;;;;;;;13.46;100.00;98209.64;3751956;77;42953;-20
2021/05/19 10:10:38;;;;;;;6.00;4.42;;;;;;;13.31;93.63;98221.25;3747421;77;44013;-21
2021/05/19 10:15:45;;;;;;;6.03;4.30;;;;;;;13.58;95.96;98220.88;3740517;77;43390;-21
2021/05/19 10:20:55;;;;;;;4.72;3.85;;;;;;;13.22;90.99;98228.62;3749421;77;43254;-21
2021/05/19 10:26:10;;;;;;;4.92;3.90;;;;;;;12.86;92.68;98225.20;3746408;78;43370;-22
2021/05/19 10:31:40;;;;;;;4.50;4.00;;;;;;;13.22;90.42;98218.30;3742408;77;43354;-21
2021/05/19 10:36:43;;;;;;;5.65;4.72;;;;;;;13.41;96.65;98227.27;3742421;77;43720;-21
2021/05/19 10:41:51;;;;;;;4.55;3.35;;;;;;;13.08;95.63;98224.02;3753836;77;43703;-22
2021/05/19 10:47:01;;;;;;;3.62;3.33;;;;;;;13.58;90.91;98214.93;3737035;77;43286;-21
2021/05/19 10:52:15;;;;;;;5.28;3.37;;;;;;;13.88;88.00;98212.20;3725093;78;43979;-21
2021/05/19 10:57:42;;;;;;;3.77;2.65;;;;;;;14.32;89.71;98206.40;3720495;79;43438;-21
2021/05/19 11:03:16;;;;;;;3.22;2.42;;;;;;;14.13;81.26;98215.47;3726933;78;43984;-21
2021/05/19 11:08:28;;;;;;;2.08;1.77;;;;;;;14.36;82.87;98205.00;3712750;78;44480;-21
2021/05/19 11:13:55;;;;;;;1.90;1.60;;;;;;;14.53;74.09;98197.97;3729885;79;43654;-21
2021/05/19 11:19:09;;;;;;;2.98;1.85;;;;;;;14.54;67.75;98201.00;3721983;78;44436;-22
2021/05/19 11:24:15;;;;;;;3.12;1.77;;;;;;;14.60;60.21;98194.30;3723699;78;44368;-21
2021/05/19 11:29:21;;;;;;;2.30;1.80;;;;;;;15.06;71.83;98185.45;3712657;78;43440;-21
2021/05/19 11:34:28;;;;;;;1.80;1.55;;;;;;;14.88;64.55;98192.20;3709147;78;26369;-22
2021/05/19 11:39:37;;;;;;;2.17;1.98;;;;;;;14.69;65.02;98188.80;3717521;79;43055;-22
2021/05/19 11:44:50;;;;;;;2.27;1.98;;;;;;;15.05;69.48;98190.06;3714519;78;43647;-22
2021/05/19 11:50:16;;;;;;;2.62;1.45;;;;;;;15.11;69.00;98200.64;3733064;77;43401;-22
2021/05/19 11:55:32;;;;;;;2.00;1.80;;;;;;;14.99;60.20;98194.07;3749912;77;43442;-22
2021/05/19 12:00:40;;;;;;;2.83;2.27;;;;;;;14.95;59.98;98182.77;3732077;79;44117;-22
2021/05/19 12:05:51;;;;;;;2.20;1.80;;;;;;;15.15;61.73;98192.95;3747835;77;43383;-21
2021/05/19 12:11:08;;;;;;;3.05;1.85;;;;;;;15.58;65.59;98181.99;3753716;77;44341;-22
2021/05/19 12:16:21;;;;;;;2.10;1.90;;;;;;;15.52;62.28;98179.52;3746896;77;43690;-21
2021/05/19 12:21:30;;;;;;;1.92;1.60;;;;;;;15.32;60.62;98180.77;3757609;77;42948;-20
2021/05/19 12:26:39;;;;;;;2.27;2.02;;;;;;;15.56;59.19;98179.45;3741556;77;43396;-22
2021/05/19 12:31:45;;;;;;;4.35;1.47;;;;;;;15.70;63.04;98170.86;3747228;77;43681;-21
2021/05/19 12:36:57;;;;;;;1.65;1.55;;;;;;;15.93;62.54;98176.56;3739763;77;44477;-22
2021/05/19 12:42:20;;;;;;;4.08;3.52;;;;;;;16.04;56.88;98170.23;3760087;77;43370;-22
2021/05/19 12:47:27;;;;;;;2.33;1.40;;;;;;;15.59;78.70;98194.50;3751620;78;44392;-22
2021/05/19 12:52:35;;;;;;;4.72;3.37;;;;;;;15.87;66.74;98188.22;3773247;77;44524;-22
2021/05/19 12:57:41;;;;;;;4.20;3.80;;;;;;;15.63;79.58;98193.61;3765453;78;43369;-22
2021/05/19 13:02:48;;;;;;;3.70;3.40;;;;;;;15.81;86.28;98193.09;3760131;78;43734;-22
2021/05/19 13:07:54;;;;;;;4.53;3.33;;;;;;;15.38;81.71;98190.00;3758137;77;44033;-22
2021/05/19 13:13:06;;;;;;;3.12;2.83;;;;;;;14.92;84.06;98194.01;3713752;78;43982;-22
2021/05/19 13:18:25;;;;;;;3.67;2.25;;;;;;;14.43;81.68;98205.91;3654877;80;44646;-22
2021/05/19 13:23:44;;;;;;;3.42;2.60;;;;;;;13.71;94.52;98205.65;3708155;78;43332;-22
2021/05/19 13:28:51;;;;;;;4.87;2.70;;;;;;;13.24;100.00;98225.20;3596628;81;44073;-22
2021/05/19 13:34:08;;;;;;;3.20;2.90;;;;;;;13.02;100.00;98222.02;3758672;77;43186;-22
2021/05/19 13:39:14;;;;;;;3.58;3.00;;;;;;;13.21;98.04;98215.27;3757902;77;43043;-23
2021/05/19 13:44:22;;;;;;;2.12;1.92;;;;;;;13.99;100.00;98193.30;3757504;77;44461;-22
2021/05/19 13:49:31;;;;;;;1.55;1.45;;;;;;;14.52;87.17;98193.61;3744143;77;44019;-22
2021/05/19 13:54:41;;;;;;;1.45;1.30;;;;;;;14.83;73.00;98193.30;3742122;77;44095;-23
2021/05/19 13:59:47;;;;;;;1.90;0.90;;;;;;;15.24;74.20;98187.19;3601624;81;43718;-22
2021/05/19 14:05:08;;;;;;;1.60;1.02;;;;;;;15.43;66.68;98194.30;3701013;78;43423;-23
2021/05/19 14:10:16;;;;;;;1.20;1.00;;;;;;;15.59;64.32;98193.14;3675368;80;43685;-23
2021/05/19 14:15:28;;;;;;;1.80;1.40;;;;;;;15.99;61.68;98187.97;3708862;78;44484;-23
2021/05/19 14:31:27;;;;;;;1.52;1.20;;;;;;;15.60;62.63;98196.72;3675271;80;44034;-22
2021/05/19 14:48:39;;;;;;;2.40;2.00;;;;;;;14.98;81.31;98211.38;3736529;77;44047;-23
2021/05/19 15:03:54;;;;;;;1.37;1.17;;;;;;;14.74;84.10;98217.52;3698598;79;43479;-22
2021/05/19 15:09:03;;;;;;;1.52;1.02;;;;;;;14.74;80.93;98221.58;3621078;80;44036;-23
2021/05/19 15:14:34;;;;;;;1.60;1.10;;;;;;;14.75;79.37;98231.40;3698029;79;44492;-22
2021/05/19 15:19:45;;;;;;;1.42;1.32;;;;;;;15.10;80.27;98224.23;3737210;77;43709;-22
2021/05/19 15:24:53;;;;;;;3.12;1.25;;;;;;;15.08;76.82;98224.94;3735563;77;43490;-22
2021/05/19 15:29:59;;;;;;;2.75;1.60;;;;;;;15.23;80.24;98222.64;3722624;78;43756;-22
2021/05/19 15:35:13;;;;;;;5.85;1.40;;;;;;;14.88;82.29;98227.97;3730163;77;44041;-23
2021/05/19 15:40:27;;;;;;;1.62;1.52;;;;;;;14.60;80.72;98228.19;3600138;80;43998;-22
2021/05/19 15:45:46;;;;;;;2.65;1.60;;;;;;;14.45;82.36;98231.48;3671749;79;43384;-23
2021/05/19 15:50:56;;;;;;;2.12;1.80;;;;;;;15.22;81.59;98230.48;3718600;77;43250;-22
2021/05/19 15:56:12;;;;;;;2.83;1.90;;;;;;;15.03;78.18;98230.10;3753154;77;43120;-23
2021/05/19 16:01:48;;;;;;;3.25;2.08;;;;;;;14.78;84.94;98226.95;3737881;77;43387;-22
2021/05/19 16:07:16;;;;;;;2.77;2.30;;;;;;;15.31;78.96;98223.88;3746892;77;43998;-22
2021/05/19 16:12:34;;;;;;;2.67;2.20;;;;;;;15.43;81.77;98221.44;3750619;77;43677;-22
2021/05/19 16:17:46;;;;;;;3.17;1.87;;;;;;;16.01;85.81;98228.02;3744475;77;44058;-21
2021/05/19 16:23:04;;;;;;;2.75;2.10;;;;;;;17.00;78.31;98219.55;3734338;77;27127;-20
2021/05/19 16:28:24;;;;;;;3.50;1.92;;;;;;;16.76;83.82;98227.73;3619209;80;44016;-21
2021/05/19 16:34:29;;;;;;;2.02;1.82;;;;;;;16.62;82.39;98229.09;3705200;78;43689;-22
2021/05/19 16:39:48;;;;;;;2.95;2.08;;;;;;;16.54;87.66;98229.25;3641877;81;26719;-21
2021/05/19 16:45:05;;;;;;;2.75;1.92;;;;;;;17.73;78.82;98223.27;3690180;79;43989;-23
2021/05/19 16:50:22;;;;;;;3.65;2.00;;;;;;;17.81;77.35;98229.88;3734058;77;43677;-23
2021/05/19 16:55:34;;;;;;;2.30;1.92;;;;;;;18.25;81.71;98223.36;3774392;76;43721;-21
2021/05/19 17:00:49;;;;;;;3.12;2.00;;;;;;;17.32;84.04;98224.38;3814628;76;43678;-22
2021/05/19 17:06:01;;;;;;;1.90;1.70;;;;;;;17.90;77.71;98220.92;3811440;76;26384;-22
2021/05/19 17:11:17;;;;;;;2.72;1.70;;;;;;;18.66;77.44;98217.17;3732715;79;43985;-24
2021/05/19 17:16:29;;;;;;;2.50;1.70;;;;;;;18.73;77.65;98215.27;3690586;80;43427;-22
2021/05/19 17:21:41;;;;;;;2.50;1.82;;;;;;;18.00;76.59;98217.25;3757447;77;44037;-23
2021/05/19 17:26:59;;;;;;;2.17;1.72;;;;;;;18.13;78.70;98220.98;3669506;79;40534;-23
2021/05/19 17:32:19;;;;;;;1.75;1.65;;;;;;;18.66;79.03;98226.72;3695169;79;43720;-21
2021/05/19 17:37:36;;;;;;;2.50;1.60;;;;;;;18.86;74.61;98235.34;3689554;79;43718;-21
2021/05/19 17:42:47;;;;;;;2.55;1.77;;;;;;;18.85;77.48;98235.85;3662424;79;44010;-21
2021/05/19 17:48:01;;;;;;;2.00;1.60;;;;;;;18.81;80.43;98240.09;3659532;80;44023;-22
2021/05/19 17:53:14;;;;;;;1.67;1.57;;;;;;;18.43;79.17;98237.65;3711717;78;44023;-22
2021/05/19 17:58:30;;;;;;;2.17;1.82;;;;;;;17.78;83.97;98239.83;3698969;79;43938;-21
2021/05/19 18:03:44;;;;;;;1.67;1.57;;;;;;;17.16;86.92;98241.97;3696355;78;26370;-22
2021/05/19 18:08:59;;;;;;;2.02;1.77;;;;;;;16.69;88.70;98243.21;3696615;78;27845;-21
2021/05/19 18:14:11;;;;;;;1.95;1.40;;;;;;;16.51;91.01;98250.08;3648996;79;43685;-21
2021/05/19 18:19:26;;;;;;;2.40;1.50;;;;;;;15.81;88.92;98250.95;3613141;79;44042;-22
2021/05/19 18:24:55;;;;;;;1.62;1.50;;;;;;;15.49;90.52;98255.11;3640831;79;44081;-21
2021/05/19 18:30:28;;;;;;;2.00;1.60;;;;;;;15.30;93.60;98258.84;3581710;82;44431;-22
2021/05/19 18:35:36;;;;;;;2.70;1.92;;;;;;;14.91;95.06;98261.49;3648091;79;44088;-21
2021/05/19 18:40:55;;;;;;;3.08;2.02;;;;;;;14.52;97.44;98264.09;3644408;79;26902;-23
2021/05/19 18:46:22;;;;;;;2.10;1.90;;;;;;;14.14;98.13;98269.13;3606931;82;43567;-22
2021/05/19 18:51:52;;;;;;;2.00;1.80;;;;;;;13.93;97.93;98273.43;3688731;79;43024;-21
2021/05/19 18:57:08;;;;;;;3.08;2.10;;;;;;;13.79;100.00;98276.47;3688587;79;44050;-20
2021/05/19 19:02:25;;;;;;;3.25;2.20;;;;;;;13.46;100.00;98286.77;3697252;79;43387;-21
2021/05/19 19:07:55;;;;;;;2.90;2.20;;;;;;;13.12;100.00;98286.16;3694240;78;43993;-21
2021/05/19 19:13:09;;;;;;;2.98;1.82;;;;;;;12.97;100.00;98296.93;3683030;79;43419;-22
2021/05/19 19:18:23;;;;;;;3.40;2.10;;;;;;;12.78;100.00;98299.09;3685121;80;44041;-22
2021/05/19 19:23:33;;;;;;;2.85;2.10;;;;;;;12.54;100.00;98303.28;3690695;78;43676;-22
2021/05/19 19:28:46;;;;;;;2.52;1.60;;;;;;;12.14;100.00;98306.82;3673885;80;26453;-21
2021/05/19 19:34:00;;;;;;;2.25;1.82;;;;;;;12.14;100.00;98309.52;3681691;78;43680;-23
2021/05/19 19:39:22;;;;;;;2.85;2.30;;;;;;;12.15;100.00;98313.08;3618084;80;43701;-23
2021/05/19 19:44:50;;;;;;;3.05;1.98;;;;;;;12.04;100.00;98326.95;3631186;80;44032;-23
2021/05/19 19:50:05;;;;;;;3.13;2.27;;;;;;;11.84;100.00;98332.69;3681290;78;44531;-22
2021/05/19 19:55:28;;;;;;;3.22;2.00;;;;;;;11.67;100.00;98328.68;3667653;80;44031;-23
2021/05/19 20:01:02;;;;;;;2.87;2.20;;;;;;;11.58;100.00;98340.99;3710177;78;43345;-23
2021/05/19 20:06:24;;;;;;;3.00;2.17;;;;;;;11.52;100.00;98338.47;3700817;78;26281;-22
2021/05/19 20:11:40;;;;;;;3.20;2.25;;;;;;;11.39;100.00;98341.17;3702339;78;27701;-22
2021/05/19 20:16:49;;;;;;;2.50;2.30;;;;;;;11.30;100.00;98337.28;3711637;78;43660;-21
2021/05/19 20:22:10;;;;;;;3.58;2.62;;;;;;;11.27;100.00;98337.12;3619102;80;26396;-22
2021/05/19 20:27:24;;;;;;;3.17;2.72;;;;;;;11.17;100.00;98346.70;3665305;79;43997;-22
2021/05/19 20:32:38;;;;;;;2.62;2.40;;;;;;;11.14;100.00;98346.20;3681887;79;44433;-22
2021/05/19 20:37:48;;;;;;;2.65;2.45;;;;;;;11.14;100.00;98350.25;3685331;79;44461;-22
2021/05/19 20:43:01;;;;;;;2.83;2.52;;;;;;;11.11;100.00;98344.69;3639835;80;43719;-22
2021/05/19 20:48:16;;;;;;;3.87;2.47;;;;;;;11.03;100.00;98336.60;3632408;80;43874;-22
2021/05/19 20:53:23;;;;;;;3.50;2.50;;;;;;;10.95;100.00;98336.08;3634269;80;44073;-22
2021/05/19 20:58:29;;;;;;;4.65;3.27;;;;;;;10.97;100.00;98341.30;3680992;80;44077;-22
2021/05/19 21:03:37;;;;;;;4.30;2.40;;;;;;;10.94;100.00;98346.52;3691634;78;43377;-22
2021/05/19 21:08:42;;;;;;;5.55;3.02;;;;;;;10.99;100.00;98367.59;3669367;80;43451;-22
2021/05/19 21:13:49;;;;;;;4.75;3.00;;;;;;;9.70;100.00;98409.18;3681547;78;44065;-22
2021/05/19 21:18:54;;;;;;;4.12;2.22;;;;;;;9.29;100.00;98441.06;3680535;78;42917;-20
2021/05/19 21:24:00;;;;;;;4.37;2.30;;;;;;;9.23;100.00;98444.70;3686542;78;43693;-22
2021/05/19 21:29:06;;;;;;;2.80;2.45;;;;;;;9.10;100.00;98456.34;3686205;78;44049;-23
2021/05/19 21:34:13;;;;;;;3.37;2.63;;;;;;;9.09;100.00;98458.67;3696948;78;73188;-22
2021/05/19 21:39:19;;;;;;;3.37;2.58;;;;;;;9.02;100.00;98469.66;3638749;80;44534;-23
2021/05/19 21:44:25;;;;;;;3.92;2.33;;;;;;;8.97;100.00;98467.94;3679096;78;43672;-20
2021/05/19 21:49:32;;;;;;;2.83;2.40;;;;;;;8.91;100.00;98464.84;3687320;78;43168;-21
2021/05/19 21:54:37;;;;;;;2.30;1.90;;;;;;;8.86;100.00;98474.34;3667598;78;43462;-20
2021/05/19 21:59:43;;;;;;;2.43;2.00;;;;;;;8.86;100.00;98471.18;3683624;78;43690;-21
2021/05/19 22:04:49;;;;;;;2.80;1.90;;;;;;;8.84;100.00;98481.23;3680533;78;43318;-22
2021/05/19 22:09:55;;;;;;;2.80;1.50;;;;;;;8.81;100.00;98479.34;3691038;78;44508;-21
2021/05/19 22:15:01;;;;;;;3.52;1.65;;;;;;;8.76;100.00;98474.42;3683863;79;43404;-21
2021/05/19 22:20:22;;;;;;;2.10;1.60;;;;;;;8.64;100.00;98475.09;3686115;78;44094;-21
2021/05/19 22:25:23;;;;;;;1.60;1.50;;;;;;;8.59;100.00;98474.19;3673327;78;43555;-22
2021/05/19 22:30:28;;;;;;;2.60;2.00;;;;;;;8.62;100.00;98456.92;3684015;78;42707;-24
2021/05/19 22:35:34;;;;;;;3.55;2.35;;;;;;;8.65;100.00;98433.81;3681656;78;73165;-23
2021/05/19 22:40:40;;;;;;;2.97;2.33;;;;;;;8.64;100.00;98426.23;3681677;78;44036;-23
2021/05/19 22:45:46;;;;;;;4.37;2.70;;;;;;;8.68;100.00;98434.00;3679691;78;44118;-23
2021/05/19 22:50:52;;;;;;;3.00;2.30;;;;;;;8.54;100.00;98468.40;3678463;78;43681;-21
2021/05/19 22:55:57;;;;;;;4.00;2.75;;;;;;;8.40;100.00;98471.05;3608332;80;44073;-21
2021/05/19 23:01:05;;;;;;;5.23;2.70;;;;;;;8.33;100.00;98482.86;3673134;79;67362;-22
2021/05/19 23:06:11;;;;;;;3.30;2.60;;;;;;;8.36;100.00;98470.14;3611248;80;43170;-22
2021/05/19 23:11:16;;;;;;;3.13;2.50;;;;;;;8.37;100.00;98472.67;3680266;79;43489;-22
2021/05/19 23:16:22;;;;;;;3.67;2.97;;;;;;;8.39;100.00;98467.17;3616736;82;44091;-22
2021/05/19 23:21:28;;;;;;;4.22;2.47;;;;;;;8.42;100.00;98468.20;3677683;79;44049;-22
2021/05/19 23:26:35;;;;;;;3.67;2.47;;;;;;;8.45;100.00;98466.57;3616506;80;44526;-22
2021/05/19 23:31:41;;;;;;;2.87;2.57;;;;;;;8.42;100.00;98466.85;3660448;79;44126;-22
2021/05/19 23:36:47;;;;;;;4.33;2.72;;;;;;;8.46;100.00;98452.16;3617091;80;44049;-22
2021/05/19 23:41:53;;;;;;;3.57;3.00;;;;;;;8.43;100.00;98451.96;3677273;79;42745;-23
2021/05/19 23:46:59;;;;;;;5.83;2.90;;;;;;;8.46;100.00;98450.81;3609591;82;43666;-22
2021/05/19 23:52:05;;;;;;;6.20;3.02;;;;;;;8.46;100.00;98458.39;3620325;80;44036;-22
2021/05/19 23:57:11;;;;;;;3.87;3.13;;;;;;;8.53;100.00;98459.99;3712633;78;44034;-22
